sensor_id;sensor_type;location;lat;lon;timestamp;P1;durP1;ratioP1;P2;durP2;ratioP2
41883;SDS011;27566;50.930;5.328;2023-12-22T00:01:11;16.17;;;4.53;;
41883;SDS011;27566;50.930;5.328;2023-12-22T00:03:40;21.40;;;4.28;;
41883;SDS011;27566;50.930;5.328;2023-12-22T00:06:06;14.02;;;3.28;;
41883;SDS011;27566;50.930;5.328;2023-12-22T00:08:32;15.63;;;4.30;;
41883;SDS011;27566;50.930;5.328;2023-12-22T00:10:57;22.00;;;4.68;;
41883;SDS011;27566;50.930;5.328;2023-12-22T00:13:24;23.55;;;7.85;;
41883;SDS011;27566;50.930;5.328;2023-12-22T00:15:49;24.80;;;4.97;;
41883;SDS011;27566;50.930;5.328;2023-12-22T00:18:15;21.80;;;5.35;;
41883;SDS011;27566;50.930;5.328;2023-12-22T00:20:41;17.90;;;4.70;;
41883;SDS011;27566;50.930;5.328;2023-12-22T00:23:06;19.08;;;5.22;;
41883;SDS011;27566;50.930;5.328;2023-12-22T00:25:32;27.65;;;8.30;;
41883;SDS011;27566;50.930;5.328;2023-12-22T00:27:58;30.38;;;5.45;;
41883;SDS011;27566;50.930;5.328;2023-12-22T00:30:24;14.13;;;3.55;;
41883;SDS011;27566;50.930;5.328;2023-12-22T00:32:50;22.13;;;6.45;;
41883;SDS011;27566;50.930;5.328;2023-12-22T00:35:15;17.25;;;4.65;;
41883;SDS011;27566;50.930;5.328;2023-12-22T00:37:41;20.77;;;4.03;;
41883;SDS011;27566;50.930;5.328;2023-12-22T00:40:07;15.13;;;4.60;;
41883;SDS011;27566;50.930;5.328;2023-12-22T00:42:34;20.20;;;6.30;;
41883;SDS011;27566;50.930;5.328;2023-12-22T00:45:00;25.88;;;5.82;;
41883;SDS011;27566;50.930;5.328;2023-12-22T00:47:26;17.98;;;5.18;;
41883;SDS011;27566;50.930;5.328;2023-12-22T00:49:53;23.23;;;3.65;;
41883;SDS011;27566;50.930;5.328;2023-12-22T00:52:18;19.75;;;4.88;;
41883;SDS011;27566;50.930;5.328;2023-12-22T00:54:44;14.57;;;4.00;;
41883;SDS011;27566;50.930;5.328;2023-12-22T00:57:10;17.20;;;3.47;;
41883;SDS011;27566;50.930;5.328;2023-12-22T00:59:36;15.57;;;4.43;;
41883;SDS011;27566;50.930;5.328;2023-12-22T01:02:02;13.95;;;3.92;;
41883;SDS011;27566;50.930;5.328;2023-12-22T01:04:28;16.67;;;3.70;;
41883;SDS011;27566;50.930;5.328;2023-12-22T01:06:54;21.67;;;4.55;;
41883;SDS011;27566;50.930;5.328;2023-12-22T01:09:20;18.80;;;3.63;;
41883;SDS011;27566;50.930;5.328;2023-12-22T01:11:46;22.00;;;3.83;;
41883;SDS011;27566;50.930;5.328;2023-12-22T01:14:14;11.52;;;3.38;;
41883;SDS011;27566;50.930;5.328;2023-12-22T01:16:40;12.85;;;3.78;;
41883;SDS011;27566;50.930;5.328;2023-12-22T01:19:07;17.25;;;5.30;;
41883;SDS011;27566;50.930;5.328;2023-12-22T01:21:33;11.00;;;2.97;;
41883;SDS011;27566;50.930;5.328;2023-12-22T01:24:01;16.88;;;4.35;;
41883;SDS011;27566;50.930;5.328;2023-12-22T01:26:28;13.60;;;2.75;;
41883;SDS011;27566;50.930;5.328;2023-12-22T01:28:55;18.98;;;4.10;;
41883;SDS011;27566;50.930;5.328;2023-12-22T01:31:21;8.45;;;2.97;;
41883;SDS011;27566;50.930;5.328;2023-12-22T01:33:47;10.38;;;2.83;;
41883;SDS011;27566;50.930;5.328;2023-12-22T01:36:13;10.25;;;3.28;;
41883;SDS011;27566;50.930;5.328;2023-12-22T01:38:39;19.55;;;5.18;;
41883;SDS011;27566;50.930;5.328;2023-12-22T01:41:05;10.85;;;3.53;;
41883;SDS011;27566;50.930;5.328;2023-12-22T01:43:31;16.77;;;4.22;;
41883;SDS011;27566;50.930;5.328;2023-12-22T01:45:58;16.20;;;5.07;;
41883;SDS011;27566;50.930;5.328;2023-12-22T01:48:24;13.52;;;4.03;;
41883;SDS011;27566;50.930;5.328;2023-12-22T01:50:52;10.13;;;4.20;;
41883;SDS011;27566;50.930;5.328;2023-12-22T01:56:22;14.77;;;4.55;;
41883;SDS011;27566;50.930;5.328;2023-12-22T01:58:50;14.25;;;3.67;;
41883;SDS011;27566;50.930;5.328;2023-12-22T02:01:18;12.65;;;3.38;;
41883;SDS011;27566;50.930;5.328;2023-12-22T02:03:45;14.05;;;5.07;;
41883;SDS011;27566;50.930;5.328;2023-12-22T02:06:13;18.40;;;3.33;;
41883;SDS011;27566;50.930;5.328;2023-12-22T02:08:41;12.48;;;3.35;;
41883;SDS011;27566;50.930;5.328;2023-12-22T02:11:08;18.23;;;4.40;;
41883;SDS011;27566;50.930;5.328;2023-12-22T02:13:34;15.15;;;5.43;;
41883;SDS011;27566;50.930;5.328;2023-12-22T02:16:01;16.23;;;4.93;;
41883;SDS011;27566;50.930;5.328;2023-12-22T02:18:34;12.32;;;3.42;;
41883;SDS011;27566;50.930;5.328;2023-12-22T02:45:05;12.68;;;3.17;;
41883;SDS011;27566;50.930;5.328;2023-12-22T02:47:39;20.10;;;4.28;;
41883;SDS011;27566;50.930;5.328;2023-12-22T02:50:05;16.00;;;4.63;;
41883;SDS011;27566;50.930;5.328;2023-12-22T02:52:32;17.38;;;5.22;;
41883;SDS011;27566;50.930;5.328;2023-12-22T02:54:58;19.10;;;4.07;;
41883;SDS011;27566;50.930;5.328;2023-12-22T02:57:24;27.75;;;5.35;;
41883;SDS011;27566;50.930;5.328;2023-12-22T02:59:50;20.08;;;4.32;;
41883;SDS011;27566;50.930;5.328;2023-12-22T03:02:16;16.75;;;4.45;;
41883;SDS011;27566;50.930;5.328;2023-12-22T03:04:42;12.27;;;5.50;;
41883;SDS011;27566;50.930;5.328;2023-12-22T03:07:08;13.40;;;5.13;;
41883;SDS011;27566;50.930;5.328;2023-12-22T03:09:34;18.77;;;5.00;;
41883;SDS011;27566;50.930;5.328;2023-12-22T03:12:00;18.95;;;4.22;;
41883;SDS011;27566;50.930;5.328;2023-12-22T03:14:30;16.65;;;4.47;;
41883;SDS011;27566;50.930;5.328;2023-12-22T03:17:01;15.98;;;5.45;;
41883;SDS011;27566;50.930;5.328;2023-12-22T03:19:28;17.38;;;4.43;;
41883;SDS011;27566;50.930;5.328;2023-12-22T03:21:54;14.02;;;4.05;;
41883;SDS011;27566;50.930;5.328;2023-12-22T03:24:21;20.58;;;5.10;;
41883;SDS011;27566;50.930;5.328;2023-12-22T03:26:51;15.23;;;3.05;;
41883;SDS011;27566;50.930;5.328;2023-12-22T03:29:17;25.48;;;4.78;;
41883;SDS011;27566;50.930;5.328;2023-12-22T03:31:44;17.20;;;6.30;;
41883;SDS011;27566;50.930;5.328;2023-12-22T03:34:11;22.15;;;4.30;;
41883;SDS011;27566;50.930;5.328;2023-12-22T03:36:37;21.92;;;4.22;;
41883;SDS011;27566;50.930;5.328;2023-12-22T03:39:03;20.20;;;4.18;;
41883;SDS011;27566;50.930;5.328;2023-12-22T03:41:29;14.50;;;4.20;;
41883;SDS011;27566;50.930;5.328;2023-12-22T03:43:55;13.45;;;4.68;;
41883;SDS011;27566;50.930;5.328;2023-12-22T03:46:22;13.65;;;3.60;;
41883;SDS011;27566;50.930;5.328;2023-12-22T03:48:48;18.77;;;4.05;;
41883;SDS011;27566;50.930;5.328;2023-12-22T03:51:15;15.05;;;4.50;;
41883;SDS011;27566;50.930;5.328;2023-12-22T03:53:41;11.23;;;3.13;;
41883;SDS011;27566;50.930;5.328;2023-12-22T03:56:07;10.27;;;3.03;;
41883;SDS011;27566;50.930;5.328;2023-12-22T03:58:34;12.35;;;3.53;;
41883;SDS011;27566;50.930;5.328;2023-12-22T04:01:00;14.10;;;4.65;;
41883;SDS011;27566;50.930;5.328;2023-12-22T04:03:26;10.25;;;2.35;;
41883;SDS011;27566;50.930;5.328;2023-12-22T04:05:52;16.33;;;4.65;;
41883;SDS011;27566;50.930;5.328;2023-12-22T04:08:18;14.52;;;3.88;;
41883;SDS011;27566;50.930;5.328;2023-12-22T04:10:46;14.98;;;3.15;;
41883;SDS011;27566;50.930;5.328;2023-12-22T04:13:12;5.70;;;2.50;;
41883;SDS011;27566;50.930;5.328;2023-12-22T04:15:38;17.02;;;3.42;;
41883;SDS011;27566;50.930;5.328;2023-12-22T04:18:04;13.18;;;2.72;;
41883;SDS011;27566;50.930;5.328;2023-12-22T04:20:30;22.95;;;4.53;;
41883;SDS011;27566;50.930;5.328;2023-12-22T04:22:57;12.63;;;2.92;;
41883;SDS011;27566;50.930;5.328;2023-12-22T04:25:23;16.98;;;4.28;;
41883;SDS011;27566;50.930;5.328;2023-12-22T04:27:50;13.27;;;3.63;;
41883;SDS011;27566;50.930;5.328;2023-12-22T04:30:16;19.40;;;3.20;;
41883;SDS011;27566;50.930;5.328;2023-12-22T04:32:42;15.18;;;3.05;;
41883;SDS011;27566;50.930;5.328;2023-12-22T04:35:08;19.38;;;5.40;;
41883;SDS011;27566;50.930;5.328;2023-12-22T04:37:34;16.02;;;4.47;;
41883;SDS011;27566;50.930;5.328;2023-12-22T04:40:00;11.55;;;3.85;;
41883;SDS011;27566;50.930;5.328;2023-12-22T04:42:26;14.00;;;4.80;;
41883;SDS011;27566;50.930;5.328;2023-12-22T04:44:53;21.98;;;6.25;;
41883;SDS011;27566;50.930;5.328;2023-12-22T04:47:19;17.33;;;4.47;;
41883;SDS011;27566;50.930;5.328;2023-12-22T04:49:45;18.15;;;5.10;;
41883;SDS011;27566;50.930;5.328;2023-12-22T04:52:11;17.75;;;4.38;;
41883;SDS011;27566;50.930;5.328;2023-12-22T04:54:37;16.88;;;3.83;;
41883;SDS011;27566;50.930;5.328;2023-12-22T04:57:04;20.98;;;4.88;;
41883;SDS011;27566;50.930;5.328;2023-12-22T04:59:30;15.18;;;3.55;;
41883;SDS011;27566;50.930;5.328;2023-12-22T05:01:56;19.98;;;5.30;;
41883;SDS011;27566;50.930;5.328;2023-12-22T05:04:21;24.10;;;6.10;;
41883;SDS011;27566;50.930;5.328;2023-12-22T05:06:48;17.73;;;4.60;;
41883;SDS011;27566;50.930;5.328;2023-12-22T05:09:15;19.05;;;5.68;;
41883;SDS011;27566;50.930;5.328;2023-12-22T05:11:41;14.82;;;4.78;;
41883;SDS011;27566;50.930;5.328;2023-12-22T05:14:07;14.45;;;7.22;;
41883;SDS011;27566;50.930;5.328;2023-12-22T05:16:34;20.48;;;7.60;;
41883;SDS011;27566;50.930;5.328;2023-12-22T05:19:00;19.85;;;6.05;;
41883;SDS011;27566;50.930;5.328;2023-12-22T05:21:26;17.55;;;4.72;;
41883;SDS011;27566;50.930;5.328;2023-12-22T05:23:53;17.85;;;4.40;;
41883;SDS011;27566;50.930;5.328;2023-12-22T05:26:20;21.38;;;6.95;;
41883;SDS011;27566;50.930;5.328;2023-12-22T05:28:46;21.85;;;7.93;;
41883;SDS011;27566;50.930;5.328;2023-12-22T05:31:12;23.17;;;6.35;;
41883;SDS011;27566;50.930;5.328;2023-12-22T05:33:38;20.88;;;6.18;;
41883;SDS011;27566;50.930;5.328;2023-12-22T05:36:04;23.00;;;5.78;;
41883;SDS011;27566;50.930;5.328;2023-12-22T05:38:30;22.08;;;6.93;;
41883;SDS011;27566;50.930;5.328;2023-12-22T05:40:57;27.95;;;6.25;;
41883;SDS011;27566;50.930;5.328;2023-12-22T05:43:22;29.02;;;6.55;;
41883;SDS011;27566;50.930;5.328;2023-12-22T05:45:48;23.73;;;5.85;;
41883;SDS011;27566;50.930;5.328;2023-12-22T05:48:14;25.00;;;6.93;;
41883;SDS011;27566;50.930;5.328;2023-12-22T05:50:40;24.17;;;7.95;;
41883;SDS011;27566;50.930;5.328;2023-12-22T05:53:06;17.08;;;5.22;;
41883;SDS011;27566;50.930;5.328;2023-12-22T05:55:32;27.70;;;7.20;;
41883;SDS011;27566;50.930;5.328;2023-12-22T05:57:58;25.58;;;7.30;;
41883;SDS011;27566;50.930;5.328;2023-12-22T06:00:24;47.08;;;8.50;;
41883;SDS011;27566;50.930;5.328;2023-12-22T06:02:51;25.10;;;5.75;;
41883;SDS011;27566;50.930;5.328;2023-12-22T06:05:17;27.90;;;6.53;;
41883;SDS011;27566;50.930;5.328;2023-12-22T06:07:43;26.45;;;7.03;;
41883;SDS011;27566;50.930;5.328;2023-12-22T06:10:09;21.77;;;6.35;;
41883;SDS011;27566;50.930;5.328;2023-12-22T06:12:35;42.03;;;7.78;;
41883;SDS011;27566;50.930;5.328;2023-12-22T06:15:02;38.60;;;7.97;;
41883;SDS011;27566;50.930;5.328;2023-12-22T06:17:28;28.33;;;7.28;;
41883;SDS011;27566;50.930;5.328;2023-12-22T06:19:54;26.13;;;6.47;;
41883;SDS011;27566;50.930;5.328;2023-12-22T06:22:19;20.02;;;6.00;;
41883;SDS011;27566;50.930;5.328;2023-12-22T06:24:46;30.45;;;7.32;;
41883;SDS011;27566;50.930;5.328;2023-12-22T06:27:12;26.48;;;6.75;;
41883;SDS011;27566;50.930;5.328;2023-12-22T06:29:38;31.70;;;5.97;;
41883;SDS011;27566;50.930;5.328;2023-12-22T06:32:04;27.58;;;7.43;;
41883;SDS011;27566;50.930;5.328;2023-12-22T06:34:31;30.25;;;7.47;;
41883;SDS011;27566;50.930;5.328;2023-12-22T06:36:57;26.45;;;5.72;;
41883;SDS011;27566;50.930;5.328;2023-12-22T06:39:23;26.00;;;5.50;;
41883;SDS011;27566;50.930;5.328;2023-12-22T06:41:49;34.90;;;9.48;;
41883;SDS011;27566;50.930;5.328;2023-12-22T06:44:16;27.63;;;8.48;;
41883;SDS011;27566;50.930;5.328;2023-12-22T06:46:42;25.25;;;6.40;;
41883;SDS011;27566;50.930;5.328;2023-12-22T06:49:08;26.05;;;7.75;;
41883;SDS011;27566;50.930;5.328;2023-12-22T06:51:33;22.00;;;7.13;;
41883;SDS011;27566;50.930;5.328;2023-12-22T06:54:00;27.15;;;6.60;;
41883;SDS011;27566;50.930;5.328;2023-12-22T06:56:27;26.77;;;5.60;;
41883;SDS011;27566;50.930;5.328;2023-12-22T06:58:55;26.75;;;7.75;;
41883;SDS011;27566;50.930;5.328;2023-12-22T07:03:49;27.50;;;6.22;;
41883;SDS011;27566;50.930;5.328;2023-12-22T07:06:16;27.05;;;7.10;;
41883;SDS011;27566;50.930;5.328;2023-12-22T07:08:43;23.75;;;6.30;;
41883;SDS011;27566;50.930;5.328;2023-12-22T07:11:10;33.15;;;8.70;;
41883;SDS011;27566;50.930;5.328;2023-12-22T07:13:38;25.42;;;6.38;;
41883;SDS011;27566;50.930;5.328;2023-12-22T07:16:04;31.95;;;7.65;;
41883;SDS011;27566;50.930;5.328;2023-12-22T07:18:31;21.90;;;7.93;;
41883;SDS011;27566;50.930;5.328;2023-12-22T07:20:57;18.77;;;4.78;;
41883;SDS011;27566;50.930;5.328;2023-12-22T07:23:24;21.98;;;6.45;;
41883;SDS011;27566;50.930;5.328;2023-12-22T07:25:50;24.23;;;6.70;;
41883;SDS011;27566;50.930;5.328;2023-12-22T07:28:16;27.90;;;6.57;;
41883;SDS011;27566;50.930;5.328;2023-12-22T07:30:42;18.77;;;6.00;;
41883;SDS011;27566;50.930;5.328;2023-12-22T07:33:08;23.25;;;6.20;;
41883;SDS011;27566;50.930;5.328;2023-12-22T07:35:34;18.25;;;5.80;;
41883;SDS011;27566;50.930;5.328;2023-12-22T07:38:00;20.80;;;6.35;;
41883;SDS011;27566;50.930;5.328;2023-12-22T07:40:29;23.10;;;6.80;;
41883;SDS011;27566;50.930;5.328;2023-12-22T07:42:55;15.05;;;5.47;;
41883;SDS011;27566;50.930;5.328;2023-12-22T07:45:22;16.80;;;5.40;;
41883;SDS011;27566;50.930;5.328;2023-12-22T07:47:48;26.35;;;6.13;;
41883;SDS011;27566;50.930;5.328;2023-12-22T07:50:14;18.95;;;4.63;;
41883;SDS011;27566;50.930;5.328;2023-12-22T07:52:40;19.15;;;4.35;;
41883;SDS011;27566;50.930;5.328;2023-12-22T07:55:06;26.63;;;7.13;;
41883;SDS011;27566;50.930;5.328;2023-12-22T07:57:37;22.95;;;5.43;;
41883;SDS011;27566;50.930;5.328;2023-12-22T08:00:03;15.15;;;5.03;;
41883;SDS011;27566;50.930;5.328;2023-12-22T08:02:30;25.30;;;7.80;;
41883;SDS011;27566;50.930;5.328;2023-12-22T08:04:57;17.55;;;4.85;;
41883;SDS011;27566;50.930;5.328;2023-12-22T08:07:23;17.70;;;5.60;;
41883;SDS011;27566;50.930;5.328;2023-12-22T08:09:48;16.90;;;4.18;;
41883;SDS011;27566;50.930;5.328;2023-12-22T08:12:14;11.23;;;4.60;;
41883;SDS011;27566;50.930;5.328;2023-12-22T08:14:40;13.57;;;5.78;;
41883;SDS011;27566;50.930;5.328;2023-12-22T08:17:06;17.60;;;4.28;;
41883;SDS011;27566;50.930;5.328;2023-12-22T08:19:32;14.65;;;4.38;;
41883;SDS011;27566;50.930;5.328;2023-12-22T08:21:58;9.43;;;3.20;;
41883;SDS011;27566;50.930;5.328;2023-12-22T08:24:24;11.40;;;3.53;;
41883;SDS011;27566;50.930;5.328;2023-12-22T08:26:50;14.13;;;5.30;;
41883;SDS011;27566;50.930;5.328;2023-12-22T08:29:16;15.68;;;4.07;;
41883;SDS011;27566;50.930;5.328;2023-12-22T08:31:43;10.02;;;3.70;;
41883;SDS011;27566;50.930;5.328;2023-12-22T08:34:09;10.38;;;3.80;;
41883;SDS011;27566;50.930;5.328;2023-12-22T08:36:35;12.38;;;3.50;;
41883;SDS011;27566;50.930;5.328;2023-12-22T08:39:01;11.60;;;5.07;;
41883;SDS011;27566;50.930;5.328;2023-12-22T08:41:27;14.20;;;5.75;;
41883;SDS011;27566;50.930;5.328;2023-12-22T08:43:53;16.05;;;5.70;;
41883;SDS011;27566;50.930;5.328;2023-12-22T08:46:19;10.93;;;3.75;;
41883;SDS011;27566;50.930;5.328;2023-12-22T08:48:45;11.70;;;4.80;;
41883;SDS011;27566;50.930;5.328;2023-12-22T08:51:11;12.85;;;4.47;;
41883;SDS011;27566;50.930;5.328;2023-12-22T08:53:37;15.43;;;4.15;;
41883;SDS011;27566;50.930;5.328;2023-12-22T08:56:03;9.85;;;3.53;;
41883;SDS011;27566;50.930;5.328;2023-12-22T08:58:29;8.07;;;3.22;;
41883;SDS011;27566;50.930;5.328;2023-12-22T09:00:55;14.48;;;5.13;;
41883;SDS011;27566;50.930;5.328;2023-12-22T09:03:21;10.40;;;4.45;;
41883;SDS011;27566;50.930;5.328;2023-12-22T09:05:48;11.80;;;4.20;;
41883;SDS011;27566;50.930;5.328;2023-12-22T09:08:14;18.08;;;4.45;;
41883;SDS011;27566;50.930;5.328;2023-12-22T09:10:40;9.25;;;3.08;;
41883;SDS011;27566;50.930;5.328;2023-12-22T09:13:06;11.07;;;4.35;;
41883;SDS011;27566;50.930;5.328;2023-12-22T09:15:32;10.50;;;3.47;;
41883;SDS011;27566;50.930;5.328;2023-12-22T09:17:57;7.95;;;2.92;;
41883;SDS011;27566;50.930;5.328;2023-12-22T09:20:23;10.55;;;4.13;;
41883;SDS011;27566;50.930;5.328;2023-12-22T09:22:49;11.10;;;3.08;;
41883;SDS011;27566;50.930;5.328;2023-12-22T09:25:15;9.35;;;2.80;;
41883;SDS011;27566;50.930;5.328;2023-12-22T09:27:41;7.32;;;2.75;;
41883;SDS011;27566;50.930;5.328;2023-12-22T09:30:07;9.10;;;2.75;;
41883;SDS011;27566;50.930;5.328;2023-12-22T09:32:33;6.45;;;3.42;;
41883;SDS011;27566;50.930;5.328;2023-12-22T09:35:00;9.27;;;3.00;;
41883;SDS011;27566;50.930;5.328;2023-12-22T09:37:26;11.55;;;2.97;;
41883;SDS011;27566;50.930;5.328;2023-12-22T09:39:52;7.65;;;3.47;;
41883;SDS011;27566;50.930;5.328;2023-12-22T09:42:19;6.85;;;3.88;;
41883;SDS011;27566;50.930;5.328;2023-12-22T09:44:46;13.40;;;4.05;;
41883;SDS011;27566;50.930;5.328;2023-12-22T09:47:17;5.35;;;2.75;;
41883;SDS011;27566;50.930;5.328;2023-12-22T09:49:46;8.27;;;3.67;;
41883;SDS011;27566;50.930;5.328;2023-12-22T09:52:13;15.15;;;4.65;;
41883;SDS011;27566;50.930;5.328;2023-12-22T09:54:41;8.18;;;3.28;;
41883;SDS011;27566;50.930;5.328;2023-12-22T09:57:09;7.05;;;3.05;;
41883;SDS011;27566;50.930;5.328;2023-12-22T09:59:36;7.20;;;2.53;;
41883;SDS011;27566;50.930;5.328;2023-12-22T10:02:03;5.80;;;2.53;;
41883;SDS011;27566;50.930;5.328;2023-12-22T10:04:31;7.03;;;2.88;;
41883;SDS011;27566;50.930;5.328;2023-12-22T10:06:58;8.90;;;3.20;;
41883;SDS011;27566;50.930;5.328;2023-12-22T10:09:26;5.07;;;2.72;;
41883;SDS011;27566;50.930;5.328;2023-12-22T10:11:52;8.27;;;2.67;;
41883;SDS011;27566;50.930;5.328;2023-12-22T10:14:19;9.75;;;4.25;;
41883;SDS011;27566;50.930;5.328;2023-12-22T10:16:51;6.50;;;2.72;;
41883;SDS011;27566;50.930;5.328;2023-12-22T10:19:18;6.22;;;2.58;;
41883;SDS011;27566;50.930;5.328;2023-12-22T10:21:45;5.55;;;2.13;;
41883;SDS011;27566;50.930;5.328;2023-12-22T10:24:36;5.18;;;2.20;;
41883;SDS011;27566;50.930;5.328;2023-12-22T10:27:12;5.30;;;2.20;;
41883;SDS011;27566;50.930;5.328;2023-12-22T10:29:39;6.07;;;2.70;;
41883;SDS011;27566;50.930;5.328;2023-12-22T10:32:05;8.07;;;2.95;;
41883;SDS011;27566;50.930;5.328;2023-12-22T10:34:32;5.38;;;2.30;;
41883;SDS011;27566;50.930;5.328;2023-12-22T10:36:59;7.40;;;2.55;;
41883;SDS011;27566;50.930;5.328;2023-12-22T10:39:29;10.05;;;2.58;;
41883;SDS011;27566;50.930;5.328;2023-12-22T10:41:59;4.35;;;2.38;;
41883;SDS011;27566;50.930;5.328;2023-12-22T10:44:25;5.93;;;2.60;;
41883;SDS011;27566;50.930;5.328;2023-12-22T10:46:52;7.53;;;3.65;;
41883;SDS011;27566;50.930;5.328;2023-12-22T10:49:19;9.73;;;2.97;;
41883;SDS011;27566;50.930;5.328;2023-12-22T10:51:46;11.93;;;3.65;;
41883;SDS011;27566;50.930;5.328;2023-12-22T10:54:12;7.07;;;3.03;;
41883;SDS011;27566;50.930;5.328;2023-12-22T10:56:38;7.28;;;2.97;;
41883;SDS011;27566;50.930;5.328;2023-12-22T10:59:04;12.90;;;3.88;;
41883;SDS011;27566;50.930;5.328;2023-12-22T11:01:37;4.82;;;2.67;;
41883;SDS011;27566;50.930;5.328;2023-12-22T11:04:07;7.13;;;2.70;;
41883;SDS011;27566;50.930;5.328;2023-12-22T11:06:41;6.40;;;2.80;;
41883;SDS011;27566;50.930;5.328;2023-12-22T11:09:09;6.43;;;2.53;;
41883;SDS011;27566;50.930;5.328;2023-12-22T11:11:39;7.10;;;2.25;;
41883;SDS011;27566;50.930;5.328;2023-12-22T11:14:06;4.97;;;2.47;;
41883;SDS011;27566;50.930;5.328;2023-12-22T11:16:33;8.85;;;2.47;;
41883;SDS011;27566;50.930;5.328;2023-12-22T11:19:00;6.45;;;2.55;;
41883;SDS011;27566;50.930;5.328;2023-12-22T11:21:27;8.10;;;2.38;;
41883;SDS011;27566;50.930;5.328;2023-12-22T11:23:54;4.78;;;2.10;;
41883;SDS011;27566;50.930;5.328;2023-12-22T11:26:21;3.25;;;1.90;;
41883;SDS011;27566;50.930;5.328;2023-12-22T11:28:49;8.65;;;2.45;;
41883;SDS011;27566;50.930;5.328;2023-12-22T11:31:16;5.20;;;2.53;;
41883;SDS011;27566;50.930;5.328;2023-12-22T11:33:43;7.32;;;2.95;;
41883;SDS011;27566;50.930;5.328;2023-12-22T11:36:11;6.38;;;2.67;;
41883;SDS011;27566;50.930;5.328;2023-12-22T11:38:42;8.32;;;3.30;;
41883;SDS011;27566;50.930;5.328;2023-12-22T11:41:24;6.25;;;2.30;;
41883;SDS011;27566;50.930;5.328;2023-12-22T11:43:52;2.85;;;1.60;;
41883;SDS011;27566;50.930;5.328;2023-12-22T11:46:19;5.75;;;1.95;;
41883;SDS011;27566;50.930;5.328;2023-12-22T11:48:48;5.97;;;1.90;;
41883;SDS011;27566;50.930;5.328;2023-12-22T11:51:15;6.63;;;2.30;;
41883;SDS011;27566;50.930;5.328;2023-12-22T11:53:42;8.93;;;2.33;;
41883;SDS011;27566;50.930;5.328;2023-12-22T11:56:09;9.88;;;2.35;;
41883;SDS011;27566;50.930;5.328;2023-12-22T11:58:39;6.63;;;2.47;;
41883;SDS011;27566;50.930;5.328;2023-12-22T12:01:16;8.50;;;4.05;;
41883;SDS011;27566;50.930;5.328;2023-12-22T12:03:53;12.00;;;2.42;;
41883;SDS011;27566;50.930;5.328;2023-12-22T12:08:54;5.78;;;2.33;;
41883;SDS011;27566;50.930;5.328;2023-12-22T12:11:21;3.90;;;1.67;;
41883;SDS011;27566;50.930;5.328;2023-12-22T12:13:48;9.90;;;3.35;;
41883;SDS011;27566;50.930;5.328;2023-12-22T12:16:15;5.78;;;2.10;;
41883;SDS011;27566;50.930;5.328;2023-12-22T12:18:44;6.10;;;2.25;;
41883;SDS011;27566;50.930;5.328;2023-12-22T12:21:11;8.90;;;1.90;;
41883;SDS011;27566;50.930;5.328;2023-12-22T12:23:37;3.33;;;1.17;;
41883;SDS011;27566;50.930;5.328;2023-12-22T12:26:06;4.88;;;1.92;;
41883;SDS011;27566;50.930;5.328;2023-12-22T12:28:33;6.05;;;1.75;;
41883;SDS011;27566;50.930;5.328;2023-12-22T12:31:04;6.60;;;1.58;;
41883;SDS011;27566;50.930;5.328;2023-12-22T12:33:31;7.50;;;2.13;;
41883;SDS011;27566;50.930;5.328;2023-12-22T12:36:01;4.47;;;1.75;;
41883;SDS011;27566;50.930;5.328;2023-12-22T12:41:30;10.82;;;2.63;;
41883;SDS011;27566;50.930;5.328;2023-12-22T12:43:57;5.55;;;1.70;;
41883;SDS011;27566;50.930;5.328;2023-12-22T12:46:31;12.57;;;1.90;;
41883;SDS011;27566;50.930;5.328;2023-12-22T12:49:07;4.45;;;1.98;;
41883;SDS011;27566;50.930;5.328;2023-12-22T12:51:47;5.28;;;1.80;;
41883;SDS011;27566;50.930;5.328;2023-12-22T12:54:14;9.35;;;2.55;;
41883;SDS011;27566;50.930;5.328;2023-12-22T12:56:41;7.35;;;1.50;;
41883;SDS011;27566;50.930;5.328;2023-12-22T12:59:11;8.75;;;1.58;;
41883;SDS011;27566;50.930;5.328;2023-12-22T13:01:42;10.10;;;2.28;;
41883;SDS011;27566;50.930;5.328;2023-12-22T13:04:09;9.65;;;2.20;;
41883;SDS011;27566;50.930;5.328;2023-12-22T13:06:42;6.45;;;2.47;;
41883;SDS011;27566;50.930;5.328;2023-12-22T13:09:11;10.20;;;2.58;;
41883;SDS011;27566;50.930;5.328;2023-12-22T13:11:41;7.75;;;1.88;;
41883;SDS011;27566;50.930;5.328;2023-12-22T13:14:09;3.80;;;1.08;;
41883;SDS011;27566;50.930;5.328;2023-12-22T13:16:35;5.00;;;1.88;;
41883;SDS011;27566;50.930;5.328;2023-12-22T13:19:02;4.55;;;1.77;;
41883;SDS011;27566;50.930;5.328;2023-12-22T13:21:29;6.65;;;1.40;;
41883;SDS011;27566;50.930;5.328;2023-12-22T13:24:07;6.72;;;1.42;;
41883;SDS011;27566;50.930;5.328;2023-12-22T13:26:37;4.57;;;1.27;;
41883;SDS011;27566;50.930;5.328;2023-12-22T13:29:04;7.22;;;1.60;;
41883;SDS011;27566;50.930;5.328;2023-12-22T13:31:31;7.30;;;1.63;;
41883;SDS011;27566;50.930;5.328;2023-12-22T13:33:58;7.18;;;2.15;;
41883;SDS011;27566;50.930;5.328;2023-12-22T13:36:27;7.72;;;1.60;;
41883;SDS011;27566;50.930;5.328;2023-12-22T13:38:58;11.07;;;1.50;;
41883;SDS011;27566;50.930;5.328;2023-12-22T13:41:25;3.17;;;1.40;;
41883;SDS011;27566;50.930;5.328;2023-12-22T13:43:51;5.75;;;1.20;;
41883;SDS011;27566;50.930;5.328;2023-12-22T13:46:17;12.32;;;1.50;;
41883;SDS011;27566;50.930;5.328;2023-12-22T13:48:44;5.97;;;1.25;;
41883;SDS011;27566;50.930;5.328;2023-12-22T13:51:10;5.28;;;2.67;;
41883;SDS011;27566;50.930;5.328;2023-12-22T13:53:57;5.63;;;1.50;;
41883;SDS011;27566;50.930;5.328;2023-12-22T13:56:24;3.70;;;1.38;;
41883;SDS011;27566;50.930;5.328;2023-12-22T13:59:01;7.95;;;1.70;;
41883;SDS011;27566;50.930;5.328;2023-12-22T14:01:29;8.50;;;2.08;;
41883;SDS011;27566;50.930;5.328;2023-12-22T14:03:55;6.32;;;1.92;;
41883;SDS011;27566;50.930;5.328;2023-12-22T14:06:23;8.65;;;1.88;;
41883;SDS011;27566;50.930;5.328;2023-12-22T14:08:55;6.22;;;1.50;;
41883;SDS011;27566;50.930;5.328;2023-12-22T14:11:23;5.43;;;1.77;;
41883;SDS011;27566;50.930;5.328;2023-12-22T14:13:48;10.48;;;1.83;;
41883;SDS011;27566;50.930;5.328;2023-12-22T14:16:15;10.52;;;1.80;;
41883;SDS011;27566;50.930;5.328;2023-12-22T14:18:41;7.38;;;1.92;;
41883;SDS011;27566;50.930;5.328;2023-12-22T14:21:07;5.13;;;1.77;;
41883;SDS011;27566;50.930;5.328;2023-12-22T14:23:33;4.38;;;1.42;;
41883;SDS011;27566;50.930;5.328;2023-12-22T14:25:59;4.88;;;1.33;;
41883;SDS011;27566;50.930;5.328;2023-12-22T14:28:25;5.78;;;1.38;;
41883;SDS011;27566;50.930;5.328;2023-12-22T14:30:52;6.10;;;1.55;;
41883;SDS011;27566;50.930;5.328;2023-12-22T14:33:18;6.35;;;2.42;;
41883;SDS011;27566;50.930;5.328;2023-12-22T14:35:44;5.32;;;1.35;;
41883;SDS011;27566;50.930;5.328;2023-12-22T14:38:10;4.40;;;1.10;;
41883;SDS011;27566;50.930;5.328;2023-12-22T14:40:36;7.85;;;2.35;;
41883;SDS011;27566;50.930;5.328;2023-12-22T14:43:02;8.32;;;2.53;;
41883;SDS011;27566;50.930;5.328;2023-12-22T14:45:28;10.70;;;1.85;;
41883;SDS011;27566;50.930;5.328;2023-12-22T14:47:54;4.63;;;1.75;;
41883;SDS011;27566;50.930;5.328;2023-12-22T14:50:20;6.10;;;1.60;;
41883;SDS011;27566;50.930;5.328;2023-12-22T14:52:46;9.98;;;1.90;;
41883;SDS011;27566;50.930;5.328;2023-12-22T14:55:12;9.82;;;2.30;;
41883;SDS011;27566;50.930;5.328;2023-12-22T14:57:38;7.63;;;1.80;;
41883;SDS011;27566;50.930;5.328;2023-12-22T15:00:04;6.43;;;1.67;;
41883;SDS011;27566;50.930;5.328;2023-12-22T15:02:31;6.03;;;2.20;;
41883;SDS011;27566;50.930;5.328;2023-12-22T15:04:57;3.30;;;1.50;;
41883;SDS011;27566;50.930;5.328;2023-12-22T15:07:23;7.03;;;3.55;;
41883;SDS011;27566;50.930;5.328;2023-12-22T15:09:49;4.78;;;1.70;;
41883;SDS011;27566;50.930;5.328;2023-12-22T15:12:15;4.57;;;1.40;;